PWSweather.com
Personal Weather Stations
Station Observations
GRD01
Warsaw, LesznoPL 05-084

WarsawLesznoPL 05-084

Lat: 52.257404, Lon: 20.564847

Elevation: 298

Station Type: WH3080

http://pogoda.kampinos.waw.pl

High Low Average
Temperature 33.8°F1.0°F 31.5°F-0.3°F 31.8°F-0.1°F
Dew Point 27.1°F-2.7°F 24.1°F-4.4°F 26.0°F-3.3°F
Winds 9.8 mph -15.8 mph - 0.7 mph 1.1 mph 4.6 mph 7.4 mph
Wind Gusts 17.4 mph28.0 mph 4.5 mph7.2 mph 9.3 mph15.0 mph
Humidity 82% 68% 79%
Pressure 30.26 in1024.70 in 30.07 in1018.30 in -
Precipitation 0.00 in0.00 in - -
Hour Temp Dew Point Humidity Winds Wind Gusts Pressure Precip Precip Rate Daily Precip Total
12:00 AM 33.8°F1.0°C 24.4°F-4.2°C 68% 9.2 mph ENE14.8 kmh ENE 15.9 mph25.6 kmh 30.26 in1024.7 mb 0.00 in0.0 mm 0.00 in0.0 mm 0.00 in0.0 mm
12:15 AM 33.4°F0.8°C 24.4°F-4.2°C 69% 9.2 mph E14.8 kmh E 16.8 mph27.0 kmh 30.25 in1024.4 mb 0.00 in0.0 mm 0.00 in0.0 mm 0.00 in0.0 mm
12:30 AM 32.9°F0.5°C 24.2°F-4.3°C 70% 9.8 mph E15.8 kmh E 17.4 mph28.0 kmh 30.25 in1024.4 mb 0.00 in0.0 mm 0.00 in0.0 mm 0.00 in0.0 mm
12:45 AM 32.5°F0.3°C 24.2°F-4.3°C 71% 3.8 mph ESE6.1 kmh ESE 13.6 mph21.9 kmh 30.25 in1024.4 mb 0.00 in0.0 mm 0.00 in0.0 mm 0.00 in0.0 mm
01:00 AM 32.2°F0.1°C 24.2°F-4.3°C 72% 4.5 mph E7.2 kmh E 11.4 mph18.3 kmh 30.24 in1024.0 mb 0.00 in0.0 mm 0.00 in0.0 mm 0.00 in0.0 mm
01:15 AM 32.0°F0.0°C 24.6°F-4.1°C 74% 6.0 mph NE9.7 kmh NE 9.2 mph14.8 kmh 30.24 in1024.0 mb 0.00 in0.0 mm 0.00 in0.0 mm 0.00 in0.0 mm
01:30 AM 31.8°F-0.1°C 24.8°F-4.0°C 75% 4.5 mph NE7.2 kmh NE 12.1 mph19.5 kmh 30.24 in1024.0 mb 0.00 in0.0 mm 0.00 in0.0 mm 0.00 in0.0 mm
01:45 AM 31.8°F-0.1°C 25.1°F-3.8°C 76% 5.4 mph NE8.7 kmh NE 10.7 mph17.2 kmh 30.23 in1023.7 mb 0.00 in0.0 mm 0.00 in0.0 mm 0.00 in0.0 mm
02:00 AM 31.8°F-0.1°C 25.7°F-3.5°C 78% 8.3 mph NE13.4 kmh NE 10.7 mph17.2 kmh 30.23 in1023.7 mb 0.00 in0.0 mm 0.00 in0.0 mm 0.00 in0.0 mm
02:15 AM 31.8°F-0.1°C 26.0°F-3.3°C 79% 5.4 mph NE8.7 kmh NE 13.0 mph20.9 kmh 30.22 in1023.4 mb 0.00 in0.0 mm 0.00 in0.0 mm 0.00 in0.0 mm
02:30 AM 31.8°F-0.1°C 26.4°F-3.1°C 80% 5.4 mph ENE8.7 kmh ENE 7.6 mph12.2 kmh 30.22 in1023.4 mb 0.00 in0.0 mm 0.00 in0.0 mm 0.00 in0.0 mm
02:45 AM 31.8°F-0.1°C 26.4°F-3.1°C 80% 5.4 mph NE8.7 kmh NE 9.8 mph15.8 kmh 30.21 in1023.0 mb 0.00 in0.0 mm 0.00 in0.0 mm 0.00 in0.0 mm
03:00 AM 31.8°F-0.1°C 26.4°F-3.1°C 80% 5.4 mph NE8.7 kmh NE 9.2 mph14.8 kmh 30.20 in1022.7 mb 0.00 in0.0 mm 0.00 in0.0 mm 0.00 in0.0 mm
03:15 AM 31.8°F-0.1°C 26.4°F-3.1°C 80% 4.5 mph NE7.2 kmh NE 12.1 mph19.5 kmh 30.20 in1022.7 mb 0.00 in0.0 mm 0.00 in0.0 mm 0.00 in0.0 mm
03:30 AM 31.8°F-0.1°C 26.7°F-2.9°C 81% 5.4 mph NE8.7 kmh NE 9.2 mph14.8 kmh 30.19 in1022.4 mb 0.00 in0.0 mm 0.00 in0.0 mm 0.00 in0.0 mm
03:45 AM 31.8°F-0.1°C 26.7°F-2.9°C 81% 6.0 mph NE9.7 kmh NE 10.7 mph17.2 kmh 30.18 in1022.0 mb 0.00 in0.0 mm 0.00 in0.0 mm 0.00 in0.0 mm
04:00 AM 32.0°F0.0°C 26.8°F-2.9°C 81% 6.0 mph ENE9.7 kmh ENE 9.8 mph15.8 kmh 30.18 in1022.0 mb 0.00 in0.0 mm 0.00 in0.0 mm 0.00 in0.0 mm
04:15 AM 32.0°F0.0°C 26.8°F-2.9°C 81% 6.0 mph NE9.7 kmh NE 10.7 mph17.2 kmh 30.17 in1021.7 mb 0.00 in0.0 mm 0.00 in0.0 mm 0.00 in0.0 mm
04:30 AM 32.0°F0.0°C 27.1°F-2.7°C 82% 6.0 mph NE9.7 kmh NE 12.1 mph19.5 kmh 30.17 in1021.7 mb 0.00 in0.0 mm 0.00 in0.0 mm 0.00 in0.0 mm
04:45 AM 32.0°F0.0°C 27.1°F-2.7°C 82% 3.1 mph E5.0 kmh E 13.0 mph20.9 kmh 30.16 in1021.3 mb 0.00 in0.0 mm 0.00 in0.0 mm 0.00 in0.0 mm
05:00 AM 32.0°F0.0°C 27.1°F-2.7°C 82% 4.5 mph ENE7.2 kmh ENE 10.7 mph17.2 kmh 30.16 in1021.3 mb 0.00 in0.0 mm 0.00 in0.0 mm 0.00 in0.0 mm
05:15 AM 31.8°F-0.1°C 27.0°F-2.8°C 82% 2.2 mph NE3.5 kmh NE 10.7 mph17.2 kmh 30.16 in1021.3 mb 0.00 in0.0 mm 0.00 in0.0 mm 0.00 in0.0 mm
05:30 AM 31.8°F-0.1°C 27.0°F-2.8°C 82% 7.6 mph E12.2 kmh E 11.4 mph18.3 kmh 30.15 in1021.0 mb 0.00 in0.0 mm 0.00 in0.0 mm 0.00 in0.0 mm
05:45 AM 31.8°F-0.1°C 27.0°F-2.8°C 82% 6.0 mph ENE9.7 kmh ENE 10.7 mph17.2 kmh 30.15 in1021.0 mb 0.00 in0.0 mm 0.00 in0.0 mm 0.00 in0.0 mm
06:00 AM 31.6°F-0.2°C 26.8°F-2.9°C 82% 3.8 mph ENE6.1 kmh ENE 9.8 mph15.8 kmh 30.15 in1021.0 mb 0.00 in0.0 mm 0.00 in0.0 mm 0.00 in0.0 mm
06:15 AM 31.6°F-0.2°C 26.8°F-2.9°C 82% 8.3 mph NE13.4 kmh NE 11.4 mph18.3 kmh 30.14 in1020.7 mb 0.00 in0.0 mm 0.00 in0.0 mm 0.00 in0.0 mm
06:30 AM 31.6°F-0.2°C 26.8°F-2.9°C 82% 6.0 mph NE9.7 kmh NE 9.8 mph15.8 kmh 30.14 in1020.7 mb 0.00 in0.0 mm 0.00 in0.0 mm 0.00 in0.0 mm
06:45 AM 31.6°F-0.2°C 26.8°F-2.9°C 82% 6.0 mph NE9.7 kmh NE 8.3 mph13.4 kmh 30.13 in1020.3 mb 0.00 in0.0 mm 0.00 in0.0 mm 0.00 in0.0 mm
07:00 AM 31.6°F-0.2°C 26.8°F-2.9°C 82% 2.2 mph NE3.5 kmh NE 6.0 mph9.7 kmh 30.12 in1020.0 mb 0.00 in0.0 mm 0.00 in0.0 mm 0.00 in0.0 mm
07:15 AM 31.6°F-0.2°C 26.8°F-2.9°C 82% 1.6 mph ENE2.6 kmh ENE 9.8 mph15.8 kmh 30.13 in1020.3 mb 0.00 in0.0 mm 0.00 in0.0 mm 0.00 in0.0 mm
07:30 AM 31.6°F-0.2°C 26.8°F-2.9°C 82% 4.5 mph E7.2 kmh E 9.2 mph14.8 kmh 30.12 in1020.0 mb 0.00 in0.0 mm 0.00 in0.0 mm 0.00 in0.0 mm
07:45 AM 31.5°F-0.3°C 26.6°F-3.0°C 82% 4.5 mph ENE7.2 kmh ENE 9.2 mph14.8 kmh 30.12 in1020.0 mb 0.00 in0.0 mm 0.00 in0.0 mm 0.00 in0.0 mm
08:00 AM 31.5°F-0.3°C 26.6°F-3.0°C 82% 5.4 mph E8.7 kmh E 9.8 mph15.8 kmh 30.12 in1020.0 mb 0.00 in0.0 mm 0.00 in0.0 mm 0.00 in0.0 mm
08:15 AM 31.6°F-0.2°C 26.5°F-3.1°C 81% 6.9 mph E11.1 kmh E 9.8 mph15.8 kmh 30.12 in1020.0 mb 0.00 in0.0 mm 0.00 in0.0 mm 0.00 in0.0 mm
08:30 AM 31.6°F-0.2°C 26.5°F-3.1°C 81% 3.8 mph E6.1 kmh E 13.6 mph21.9 kmh 30.11 in1019.6 mb 0.00 in0.0 mm 0.00 in0.0 mm 0.00 in0.0 mm
08:45 AM 31.6°F-0.2°C 26.5°F-3.1°C 81% 6.0 mph ESE9.7 kmh ESE 9.8 mph15.8 kmh 30.11 in1019.6 mb 0.00 in0.0 mm 0.00 in0.0 mm 0.00 in0.0 mm
09:00 AM 31.8°F-0.1°C 26.7°F-2.9°C 81% 6.9 mph ESE11.1 kmh ESE 12.1 mph19.5 kmh 30.11 in1019.6 mb 0.00 in0.0 mm 0.00 in0.0 mm 0.00 in0.0 mm
09:15 AM 31.8°F-0.1°C 26.7°F-2.9°C 81% 4.5 mph E7.2 kmh E 8.3 mph13.4 kmh 30.11 in1019.6 mb 0.00 in0.0 mm 0.00 in0.0 mm 0.00 in0.0 mm
09:30 AM 32.0°F0.0°C 26.8°F-2.9°C 81% 3.1 mph SE5.0 kmh SE 13.0 mph20.9 kmh 30.11 in1019.6 mb 0.00 in0.0 mm 0.00 in0.0 mm 0.00 in0.0 mm
09:45 AM 32.0°F0.0°C 26.5°F-3.1°C 80% 6.0 mph E9.7 kmh E 9.8 mph15.8 kmh 30.11 in1019.6 mb 0.00 in0.0 mm 0.00 in0.0 mm 0.00 in0.0 mm
10:00 AM 32.2°F0.1°C 26.7°F-2.9°C 80% 9.2 mph SE14.8 kmh SE 16.8 mph27.0 kmh 30.11 in1019.6 mb 0.00 in0.0 mm 0.00 in0.0 mm 0.00 in0.0 mm
04:00 PM 32.2°F0.1°C 26.4°F-3.1°C 79% 4.5 mph SSW7.2 kmh SSW 7.6 mph12.2 kmh 30.07 in1018.3 mb 0.00 in0.0 mm 0.00 in0.0 mm 0.00 in0.0 mm
04:15 PM 32.0°F0.0°C 26.2°F-3.2°C 79% 3.8 mph S6.1 kmh S 6.0 mph9.7 kmh 30.07 in1018.3 mb 0.00 in0.0 mm 0.00 in0.0 mm 0.00 in0.0 mm
04:30 PM 32.0°F0.0°C 26.2°F-3.2°C 79% 2.2 mph SSE3.5 kmh SSE 8.3 mph13.4 kmh 30.07 in1018.3 mb 0.00 in0.0 mm 0.00 in0.0 mm 0.00 in0.0 mm
04:45 PM 32.0°F0.0°C 26.2°F-3.2°C 79% 6.9 mph S11.1 kmh S 10.7 mph17.2 kmh 30.07 in1018.3 mb 0.00 in0.0 mm 0.00 in0.0 mm 0.00 in0.0 mm
05:00 PM 32.0°F0.0°C 26.2°F-3.2°C 79% 3.8 mph S6.1 kmh S 10.7 mph17.2 kmh 30.07 in1018.3 mb 0.00 in0.0 mm 0.00 in0.0 mm 0.00 in0.0 mm
05:15 PM 32.0°F0.0°C 26.2°F-3.2°C 79% 3.1 mph S5.0 kmh S 7.6 mph12.2 kmh 30.08 in1018.6 mb 0.00 in0.0 mm 0.00 in0.0 mm 0.00 in0.0 mm
05:30 PM 32.0°F0.0°C 26.2°F-3.2°C 79% 1.6 mph S2.6 kmh S 6.0 mph9.7 kmh 30.07 in1018.3 mb 0.00 in0.0 mm 0.00 in0.0 mm 0.00 in0.0 mm
05:45 PM 31.8°F-0.1°C 26.4°F-3.1°C 80% 1.6 mph S2.6 kmh S 4.5 mph7.2 kmh 30.08 in1018.6 mb 0.00 in0.0 mm 0.00 in0.0 mm 0.00 in0.0 mm
06:00 PM 31.8°F-0.1°C 26.4°F-3.1°C 80% 3.1 mph S5.0 kmh S 5.4 mph8.7 kmh 30.09 in1019.0 mb 0.00 in0.0 mm 0.00 in0.0 mm 0.00 in0.0 mm
06:15 PM 31.6°F-0.2°C 26.2°F-3.2°C 80% 3.8 mph S6.1 kmh S 6.0 mph9.7 kmh 30.08 in1018.6 mb 0.00 in0.0 mm 0.00 in0.0 mm 0.00 in0.0 mm
06:30 PM 31.6°F-0.2°C 26.2°F-3.2°C 80% 4.5 mph S7.2 kmh S 8.3 mph13.4 kmh 30.08 in1018.6 mb 0.00 in0.0 mm 0.00 in0.0 mm 0.00 in0.0 mm
06:45 PM 31.6°F-0.2°C 26.2°F-3.2°C 80% 3.8 mph SSE6.1 kmh SSE 7.6 mph12.2 kmh 30.09 in1019.0 mb 0.00 in0.0 mm 0.00 in0.0 mm 0.00 in0.0 mm
07:00 PM 31.6°F-0.2°C 26.2°F-3.2°C 80% 4.5 mph S7.2 kmh S 6.9 mph11.1 kmh 30.08 in1018.6 mb 0.00 in0.0 mm 0.00 in0.0 mm 0.00 in0.0 mm
07:15 PM 31.6°F-0.2°C 26.2°F-3.2°C 80% 3.1 mph S5.0 kmh S 7.6 mph12.2 kmh 30.09 in1019.0 mb 0.00 in0.0 mm 0.00 in0.0 mm 0.00 in0.0 mm
07:30 PM 31.6°F-0.2°C 26.2°F-3.2°C 80% 2.2 mph S3.5 kmh S 6.0 mph9.7 kmh 30.09 in1019.0 mb 0.00 in0.0 mm 0.00 in0.0 mm 0.00 in0.0 mm
07:45 PM 31.6°F-0.2°C 26.2°F-3.2°C 80% 3.1 mph S5.0 kmh S 9.2 mph14.8 kmh 30.08 in1018.6 mb 0.00 in0.0 mm 0.00 in0.0 mm 0.00 in0.0 mm
08:00 PM 31.6°F-0.2°C 26.2°F-3.2°C 80% 2.2 mph S3.5 kmh S 6.9 mph11.1 kmh 30.09 in1019.0 mb 0.00 in0.0 mm 0.00 in0.0 mm 0.00 in0.0 mm
08:15 PM 31.6°F-0.2°C 26.2°F-3.2°C 80% 2.2 mph S3.5 kmh S 6.0 mph9.7 kmh 30.09 in1019.0 mb 0.00 in0.0 mm 0.00 in0.0 mm 0.00 in0.0 mm
08:30 PM 31.6°F-0.2°C 26.2°F-3.2°C 80% 5.4 mph S8.7 kmh S 6.9 mph11.1 kmh 30.09 in1019.0 mb 0.00 in0.0 mm 0.00 in0.0 mm 0.00 in0.0 mm
08:45 PM 31.6°F-0.2°C 25.9°F-3.4°C 79% 3.1 mph S5.0 kmh S 6.9 mph11.1 kmh 30.09 in1019.0 mb 0.00 in0.0 mm 0.00 in0.0 mm 0.00 in0.0 mm
09:00 PM 31.6°F-0.2°C 25.9°F-3.4°C 79% 1.6 mph S2.6 kmh S 7.6 mph12.2 kmh 30.10 in1019.3 mb 0.00 in0.0 mm 0.00 in0.0 mm 0.00 in0.0 mm
09:15 PM 31.6°F-0.2°C 25.6°F-3.6°C 78% 2.2 mph S3.5 kmh S 6.0 mph9.7 kmh 30.10 in1019.3 mb 0.00 in0.0 mm 0.00 in0.0 mm 0.00 in0.0 mm
09:30 PM 31.6°F-0.2°C 25.6°F-3.6°C 78% 3.1 mph S5.0 kmh S 6.0 mph9.7 kmh 30.10 in1019.3 mb 0.00 in0.0 mm 0.00 in0.0 mm 0.00 in0.0 mm
09:45 PM 31.6°F-0.2°C 25.3°F-3.7°C 77% 3.1 mph S5.0 kmh S 6.9 mph11.1 kmh 30.10 in1019.3 mb 0.00 in0.0 mm 0.00 in0.0 mm 0.00 in0.0 mm
10:00 PM 31.6°F-0.2°C 25.3°F-3.7°C 77% 3.1 mph S5.0 kmh S 5.4 mph8.7 kmh 30.10 in1019.3 mb 0.00 in0.0 mm 0.00 in0.0 mm 0.00 in0.0 mm
10:15 PM 31.6°F-0.2°C 24.9°F-3.9°C 76% 0.7 mph S1.1 kmh S 6.0 mph9.7 kmh 30.10 in1019.3 mb 0.00 in0.0 mm 0.00 in0.0 mm 0.00 in0.0 mm
10:30 PM 31.6°F-0.2°C 24.3°F-4.3°C 74% 2.2 mph S3.5 kmh S 5.4 mph8.7 kmh 30.11 in1019.6 mb 0.00 in0.0 mm 0.00 in0.0 mm 0.00 in0.0 mm
10:45 PM 31.6°F-0.2°C 24.3°F-4.3°C 74% 3.1 mph S5.0 kmh S 4.5 mph7.2 kmh 30.11 in1019.6 mb 0.00 in0.0 mm 0.00 in0.0 mm 0.00 in0.0 mm
11:00 PM 31.5°F-0.3°C 24.1°F-4.4°C 74% 3.1 mph SSE5.0 kmh SSE 5.4 mph8.7 kmh 30.11 in1019.6 mb 0.00 in0.0 mm 0.00 in0.0 mm 0.00 in0.0 mm
11:15 PM 31.5°F-0.3°C 24.1°F-4.4°C 74% 3.8 mph S6.1 kmh S 9.2 mph14.8 kmh 30.11 in1019.6 mb 0.00 in0.0 mm 0.00 in0.0 mm 0.00 in0.0 mm
11:30 PM 31.5°F-0.3°C 24.1°F-4.4°C 74% 6.9 mph S11.1 kmh S 9.2 mph14.8 kmh 30.11 in1019.6 mb 0.00 in0.0 mm 0.00 in0.0 mm 0.00 in0.0 mm
11:45 PM 31.5°F-0.3°C 24.1°F-4.4°C 74% 3.1 mph S5.0 kmh S 8.3 mph13.4 kmh 30.11 in1019.6 mb 0.00 in0.0 mm 0.00 in0.0 mm 0.00 in0.0 mm